• Join FlightAware (Why Join?)
  • Login
  • US Flag 
10:40AM EDT


 

Airport Tracker/Info


-or-


 

Live Flight TrackerFlight Track Log ✈ SWA3497 ✈ 19-Apr-2013 ✈ KSDF - KBWI

Flight Track Log - Related Links

Times and Time Zones

All times are in EDT time to prevent confusion due to time zone crossing. See the SWA3497 flight status page for this flight to view local times or setup timezone preferences in your user account.

Time Position Orientation Groundspeed Altitude Reporting Facility
EDT Latitude Longitude Course Direction KTS MPH feet Rate Location/Type
02:17PM 38.1889 -85.7678 301° West 147 169 1,900  Level FAA TRACON SMA TRACON (SMA)
02:17PM 38.1969 -85.7897 295° West 177 204 3,000 2,640 Climbing FAA TRACON SMA TRACON (SMA)
02:17PM 38.2022 -85.8039 295° West 186 214 3,500 2,820 Climbing FAA TRACON SMA TRACON (SMA)
02:18PM 38.2117 -85.8281 296° West 196 226 4,800 3,720 Climbing FAA TRACON SMA TRACON (SMA)
02:18PM 38.2192 -85.8469 297° West 197 227 6,000 3,900 Climbing FAA TRACON SMA TRACON (SMA)
02:18PM 38.2294 -85.8711 298° West 200 230 7,400 4,020 Climbing FAA TRACON SMA TRACON (SMA)
02:19PM 38.2394 -85.8892 305° West 204 235 8,700 3,180 Climbing FAA TRACON SMA TRACON (SMA)
02:19PM 38.2581 -85.8972 341° North 230 265 9,500 1,740 Climbing FAA TRACON SMA TRACON (SMA)
02:19PM 38.2806 -85.8939 North 258 297 9,900 600 Climbing FAA TRACON SMA TRACON (SMA)
02:20PM 38.3086 -85.8892 North 266 306 9,900 600 Level FAA TRACON SMA TRACON (SMA)
02:20PM 38.3317 -85.8844 North 270 311 10,300 1,200 Climbing FAA TRACON SMA TRACON (SMA)
02:20PM 38.3564 -85.8769 13° North 289 333 10,700 1,920 Climbing FAA TRACON SMA TRACON (SMA)
02:21PM 38.3828 -85.8442 44° Northeast 340 391 11,600 2,520 Climbing FAA TRACON SMA TRACON (SMA)
02:21PM 38.3917 -85.7944 77° East 377 434 12,700 3,300 Climbing FAA TRACON SMA TRACON (SMA)
02:21PM 38.3917 -85.7422 90° East 384 442 14,100 3,660 Climbing FAA TRACON SMA TRACON (SMA)
02:22PM 38.3917 -85.7097 90° East 391 450 14,800 2,520 Climbing FAA TRACON SMA TRACON (SMA)
02:22PM 38.3828 -85.6692 106° East 396 456 15,600 1,680 Climbing FAA TRACON SMA TRACON (SMA)
02:22PM 38.3675 -85.6336 119° Southeast 381 438 15,900 1,800 Climbing FAA TRACON SMA TRACON (SMA)
02:23PM 38.3586 -85.5908 105° East 395 455 16,800 3,600 Climbing FAA TRACON SMA TRACON (SMA)
02:23PM 38.3550 -85.5342 95° East 415 478 18,300 3,480 Climbing FAA TRACON SMA TRACON (SMA)
02:23PM 38.3550 -85.4861 90° East 431 496 19,100 2,160 Climbing FAA TRACON SMA TRACON (SMA)
02:24PM 38.3553 -85.4378 90° East 442 509 19,800 2,340 Climbing FAA TRACON SMA TRACON (SMA)
02:24PM 38.3556 -85.3747 90° East 457 526 20,700 2,700 Climbing FAA TRACON SMA TRACON (SMA)
02:24PM 38.3564 -85.3233 89° East 467 537 21,600 2,760 Climbing FAA TRACON SMA TRACON (SMA)
02:25PM 38.3572 -85.2722 89° East 471 542 22,500 3,000 Climbing FAA TRACON SMA TRACON (SMA)
02:25PM 38.3581 -85.2072 89° East 475 547 23,600 2,820 Climbing FAA TRACON SMA TRACON (SMA)
02:25PM 38.3592 -85.1553 88° East 476 548 24,400 2,580 Climbing FAA TRACON SMA TRACON (SMA)
02:26PM 38.3597 -85.1025 89° East 480 552 25,300 2,580 Climbing FAA TRACON SMA TRACON (SMA)
02:26PM 38.3603 -85.0367 89° East 485 558 26,200 2,400 Climbing FAA TRACON SMA TRACON (SMA)
02:26PM 38.3608 -84.9836 89° East 487 560 26,900 2,100 Climbing FAA TRACON SMA TRACON (SMA)
02:27PM 38.3622 -84.9303 88° East 489 563 27,600 2,400 Climbing FAA TRACON SMA TRACON (SMA)
02:27PM 38.3636 -84.8628 88° East 495 570 28,500 2,400 Climbing FAA TRACON SMA TRACON (SMA)
02:27PM 38.3642 -84.8083 89° East 497 572 29,200 1,860 Climbing FAA TRACON SMA TRACON (SMA)
02:28PM 38.3644 -84.7544 90° East 497 572 29,800 1,980 Climbing FAA TRACON SMA TRACON (SMA)
02:28PM 38.3656 -84.7000 88° East 498 573 30,500 2,220 Climbing FAA TRACON SMA TRACON (SMA)
02:28PM 38.3664 -84.6319 89° East 500 575 31,300 2,520 Climbing FAA TRACON SMA TRACON (SMA)
02:29PM 38.3664 -84.5775 90° East 499 574 32,200 3,000 Climbing FAA TRACON SMA TRACON (SMA)
02:29PM 38.3678 -84.5111 88° East 491 565 33,300 2,040 Climbing FAA TRACON SMA TRACON (SMA)
02:29PM 38.3686 -84.4853 88° East 487 560 33,600 1,140 Climbing FAA TRACON SMA TRACON (SMA)
02:30PM 38.3653 -84.3367 92° East 487 560 34,700 720 Climbing Indianapolis Center
02:31PM 38.3653 -84.1303 90° East 499 574 35,000 780 Climbing Indianapolis Center
02:32PM 38.3661 -83.9494 90° East 506 582 36,300 1,260 Climbing Indianapolis Center
02:33PM 38.3664 -83.7681 90° East 508 585 37,700 1,140 Climbing Indianapolis Center
02:34PM 38.3667 -83.5861 90° East 511 588 38,700 600 Climbing Indianapolis Center
02:35PM 38.3656 -83.4019 90° East 517 595 39,000 120 Climbing Indianapolis Center
02:36PM 38.3650 -83.2194 90° East 515 593 39,000  Level Indianapolis Center
02:37PM 38.3636 -83.0369 90° East 513 590 39,000  Level Indianapolis Center
02:38PM 38.3619 -82.8231 91° East 515 593 39,000  Level Indianapolis Center
02:39PM 38.3603 -82.6372 91° East 519 597 39,000  Level Indianapolis Center
02:40PM 38.3586 -82.4431 91° East 528 608 39,000  Level Indianapolis Center
02:41PM 38.3569 -82.2561 91° East 529 609 39,000  Level Indianapolis Center
02:42PM 38.3547 -82.0711 91° East 525 604 39,000  Level Indianapolis Center
02:44PM 38.3528 -81.8847 91° East 528 608 39,000  Level Indianapolis Center
02:45PM 38.3492 -81.6989 91° East 530 610 39,000  Level Indianapolis Center
02:46PM 38.3419 -81.5122 93° East 532 612 39,000  Level Indianapolis Center
02:47PM 38.3339 -81.2875 93° East 536 617 39,000  Level Indianapolis Center
02:48PM 38.3278 -81.1006 92° East 535 616 39,000  Level Indianapolis Center
02:49PM 38.3211 -80.9114 93° East 538 619 39,000  Level Indianapolis Center
02:50PM 38.3142 -80.7208 93° East 541 623 39,000  Level Indianapolis Center
02:51PM 38.3206 -80.5306 87° East 540 621 39,000  Level Indianapolis Center
02:52PM 38.3475 -80.3339 80° East 550 633 39,000  Level Indianapolis Center
02:53PM 38.3775 -80.1122 80° East 544 626 39,000  Level Indianapolis Center
02:54PM 38.3989 -79.9250 82° East 546 628 39,000  Level Indianapolis Center
02:55PM 38.4267 -79.7500 78° East 537 618 39,000  Level Washington Center
02:56PM 38.4494 -79.5683 81° East 531 611 39,000 -900 Level Washington Center
02:57PM 38.4700 -79.3839 82° East 531 611 37,200 -1,920 Descending Washington Center
02:58PM 38.4922 -79.2072 81° East 519 597 35,200 -1,860 Descending Washington Center
02:59PM 38.5142 -79.0225 81° East 490 564 33,500 -1,800 Descending Washington Center
03:00PM 38.5314 -78.8508 83° East 482 555 31,600 -2,040 Descending Washington Center
03:01PM 38.5503 -78.6897 81° East 477 549 29,500 -2,100 Descending Washington Center
03:02PM 38.5689 -78.5286 82° East 464 534 27,500 -2,040 Descending Washington Center
03:03PM 38.5853 -78.3753 82° East 452 520 25,500 -2,040 Descending Washington Center
03:04PM 38.6033 -78.2217 81° East 441 507 23,500 -1,980 Descending Washington Center
03:05PM 38.6189 -78.0708 82° East 436 502 21,600 -1,860 Descending Washington Center
03:06PM 38.6342 -77.9278 82° East 424 488 19,800 -1,320 Descending Washington Center
03:07PM 38.6431 -77.8006 85° East 411 473 19,000 -420 Descending Washington Center
03:08PM 38.6517 -77.6653 85° East 391 450 19,000 -660 Level Washington Center
03:09PM 38.6600 -77.5297 85° East 386 444 17,700 -1,380 Descending Washington Center
03:10PM 38.6667 -77.3333 87° East 362 417 15,900 -1,440 Descending Potomac TRACON
03:11PM 38.6833 -77.2167 80° East 365 420 14,600 -1,620 Descending Potomac TRACON
03:12PM 38.6833 -77.1000 90° East 364 419 12,900 -1,680 Descending Potomac TRACON
03:13PM 38.7000 -76.9667 81° East 364 419 11,300 -1,440 Descending Potomac TRACON
03:14PM 38.7000 -76.8333 90° East 354 407 10,100 -1,320 Descending Potomac TRACON
03:15PM 38.7167 -76.7167 80° East 338 389 8,700 -1,440 Descending Potomac TRACON
03:16PM 38.7667 -76.6167 57° Northeast 335 386 7,200 -1,380 Descending Potomac TRACON
03:17PM 38.8167 -76.5333 52° Northeast 337 388 6,000 -1,200 Descending Potomac TRACON
03:18PM 38.9000 -76.5667 343° North 295 339 4,900 -960 Descending Potomac TRACON
03:19PM 38.9833 -76.6167 335° Northwest 290 334 4,000 -480 Descending Potomac TRACON
03:20PM 39.0167 -76.7000 297° West 265 305 4,000  Level Potomac TRACON
03:21PM 39.0500 -76.7833 297° West 273 314 4,000  Level Potomac TRACON
03:22PM 39.1167 -76.8333 330° Northwest 303 349 4,000 -480 Level Potomac TRACON
03:23PM 39.2000 -76.8500 351° North 300 345 3,000 -840 Descending Potomac TRACON
03:24PM 39.2667 -76.8167 21° North 265 305 2,500 -360 Descending Potomac TRACON
03:25PM 39.2667 -76.7500 90° East 176 203 2,300 -480 Descending Potomac TRACON
03:26PM 39.2333 -76.7333 159° South 135 155 1,500 -780 Descending Potomac TRACON
03:27PM 39.2167 -76.7000 123° Southeast 133 153 800 -720 Descending Potomac TRACON
03:29PM 39.1754 -76.6683 103° East  Level Estimated
03:36PM 39.1754 -76.6683 103° East  Level Estimated